sensor_id;sensor_type;location;lat;lon;timestamp;pressure;altitude;pressure_sealevel;temperature;humidity
75740;BME280;64357;51.344;6.550;2023-09-30T00:01:50;102053.41;;;13.20;100.00
75740;BME280;64357;51.344;6.550;2023-09-30T00:04:17;102058.19;;;13.17;100.00
75740;BME280;64357;51.344;6.550;2023-09-30T00:06:43;102052.88;;;13.15;100.00
75740;BME280;64357;51.344;6.550;2023-09-30T00:09:08;102045.09;;;13.06;100.00
75740;BME280;64357;51.344;6.550;2023-09-30T00:11:33;102037.59;;;13.08;100.00
75740;BME280;64357;51.344;6.550;2023-09-30T00:13:59;102033.28;;;13.16;100.00
75740;BME280;64357;51.344;6.550;2023-09-30T00:16:25;102043.06;;;13.27;100.00
75740;BME280;64357;51.344;6.550;2023-09-30T00:18:50;102045.28;;;13.24;100.00
75740;BME280;64357;51.344;6.550;2023-09-30T00:21:16;102038.09;;;13.28;100.00
75740;BME280;64357;51.344;6.550;2023-09-30T00:23:43;102040.66;;;13.28;100.00
75740;BME280;64357;51.344;6.550;2023-09-30T00:26:09;102044.28;;;13.30;100.00
75740;BME280;64357;51.344;6.550;2023-09-30T00:28:34;102037.25;;;13.37;100.00
75740;BME280;64357;51.344;6.550;2023-09-30T00:31:06;102029.34;;;13.26;100.00
75740;BME280;64357;51.344;6.550;2023-09-30T00:33:34;102050.03;;;13.28;100.00
75740;BME280;64357;51.344;6.550;2023-09-30T00:35:59;102058.72;;;13.37;100.00
75740;BME280;64357;51.344;6.550;2023-09-30T00:38:24;102052.19;;;13.32;100.00
75740;BME280;64357;51.344;6.550;2023-09-30T00:40:50;102064.69;;;13.45;100.00
75740;BME280;64357;51.344;6.550;2023-09-30T00:43:20;102072.47;;;13.38;100.00
75740;BME280;64357;51.344;6.550;2023-09-30T00:45:46;102072.22;;;13.43;100.00
75740;BME280;64357;51.344;6.550;2023-09-30T00:48:12;102071.72;;;13.54;100.00
75740;BME280;64357;51.344;6.550;2023-09-30T00:50:40;102073.88;;;13.43;100.00
75740;BME280;64357;51.344;6.550;2023-09-30T00:53:06;102066.09;;;13.34;100.00
75740;BME280;64357;51.344;6.550;2023-09-30T00:55:33;102066.31;;;13.28;100.00
75740;BME280;64357;51.344;6.550;2023-09-30T00:57:58;102078.41;;;13.45;100.00
75740;BME280;64357;51.344;6.550;2023-09-30T01:00:24;102077.00;;;13.40;100.00
75740;BME280;64357;51.344;6.550;2023-09-30T01:02:50;102055.97;;;13.36;100.00
75740;BME280;64357;51.344;6.550;2023-09-30T01:05:18;102053.78;;;13.16;100.00
75740;BME280;64357;51.344;6.550;2023-09-30T01:07:43;102054.53;;;13.15;100.00
75740;BME280;64357;51.344;6.550;2023-09-30T01:10:09;102054.81;;;13.25;100.00
75740;BME280;64357;51.344;6.550;2023-09-30T01:12:34;102042.72;;;13.24;100.00
75740;BME280;64357;51.344;6.550;2023-09-30T01:15:03;102058.53;;;13.36;100.00
75740;BME280;64357;51.344;6.550;2023-09-30T01:17:33;102081.63;;;13.36;100.00
75740;BME280;64357;51.344;6.550;2023-09-30T01:20:00;102088.28;;;13.33;100.00
75740;BME280;64357;51.344;6.550;2023-09-30T01:22:26;102093.28;;;13.25;100.00
75740;BME280;64357;51.344;6.550;2023-09-30T01:24:53;102086.84;;;13.28;100.00
75740;BME280;64357;51.344;6.550;2023-09-30T01:27:18;102075.03;;;13.38;100.00
75740;BME280;64357;51.344;6.550;2023-09-30T01:29:44;102066.19;;;13.43;100.00
75740;BME280;64357;51.344;6.550;2023-09-30T01:32:10;102062.59;;;13.33;100.00
75740;BME280;64357;51.344;6.550;2023-09-30T01:34:36;102076.50;;;13.36;100.00
75740;BME280;64357;51.344;6.550;2023-09-30T01:37:01;102082.03;;;13.47;100.00
75740;BME280;64357;51.344;6.550;2023-09-30T01:39:27;102060.69;;;13.40;100.00
75740;BME280;64357;51.344;6.550;2023-09-30T01:41:52;102070.56;;;13.44;100.00
75740;BME280;64357;51.344;6.550;2023-09-30T01:44:19;102071.81;;;13.31;100.00
75740;BME280;64357;51.344;6.550;2023-09-30T01:46:46;102077.41;;;13.20;100.00
75740;BME280;64357;51.344;6.550;2023-09-30T01:49:11;102089.69;;;13.39;100.00
75740;BME280;64357;51.344;6.550;2023-09-30T01:51:37;102097.47;;;13.31;100.00
75740;BME280;64357;51.344;6.550;2023-09-30T01:54:05;102099.44;;;13.34;100.00
75740;BME280;64357;51.344;6.550;2023-09-30T01:56:30;102093.88;;;13.22;100.00
75740;BME280;64357;51.344;6.550;2023-09-30T01:58:55;102094.66;;;13.21;100.00
75740;BME280;64357;51.344;6.550;2023-09-30T02:01:21;102103.69;;;13.11;100.00
75740;BME280;64357;51.344;6.550;2023-09-30T02:03:49;102090.66;;;12.93;100.00
75740;BME280;64357;51.344;6.550;2023-09-30T02:06:17;102103.34;;;12.92;100.00
75740;BME280;64357;51.344;6.550;2023-09-30T02:08:44;102104.31;;;12.85;100.00
75740;BME280;64357;51.344;6.550;2023-09-30T02:11:10;102103.28;;;12.76;100.00
75740;BME280;64357;51.344;6.550;2023-09-30T02:13:35;102096.66;;;12.78;100.00
75740;BME280;64357;51.344;6.550;2023-09-30T02:16:03;102089.91;;;12.78;100.00
75740;BME280;64357;51.344;6.550;2023-09-30T02:18:29;102092.19;;;12.68;100.00
75740;BME280;64357;51.344;6.550;2023-09-30T02:20:57;102086.38;;;12.62;100.00
75740;BME280;64357;51.344;6.550;2023-09-30T02:23:24;102087.81;;;12.67;100.00
75740;BME280;64357;51.344;6.550;2023-09-30T02:25:50;102083.75;;;12.69;100.00
75740;BME280;64357;51.344;6.550;2023-09-30T02:28:17;102082.25;;;12.71;100.00
75740;BME280;64357;51.344;6.550;2023-09-30T02:30:43;102058.78;;;12.75;100.00
75740;BME280;64357;51.344;6.550;2023-09-30T02:33:08;102051.72;;;12.66;100.00
75740;BME280;64357;51.344;6.550;2023-09-30T02:35:34;102051.34;;;12.70;100.00
75740;BME280;64357;51.344;6.550;2023-09-30T02:38:03;102057.38;;;12.70;100.00
75740;BME280;64357;51.344;6.550;2023-09-30T02:40:31;102069.63;;;12.73;100.00
75740;BME280;64357;51.344;6.550;2023-09-30T02:42:56;102074.25;;;12.68;100.00
75740;BME280;64357;51.344;6.550;2023-09-30T02:45:22;102097.56;;;12.63;100.00
75740;BME280;64357;51.344;6.550;2023-09-30T02:47:47;102096.56;;;12.46;100.00
75740;BME280;64357;51.344;6.550;2023-09-30T02:50:12;102083.25;;;12.42;100.00
75740;BME280;64357;51.344;6.550;2023-09-30T02:52:39;102081.25;;;12.39;100.00
75740;BME280;64357;51.344;6.550;2023-09-30T02:55:07;102092.53;;;12.48;100.00
75740;BME280;64357;51.344;6.550;2023-09-30T02:57:32;102096.81;;;12.41;100.00
75740;BME280;64357;51.344;6.550;2023-09-30T03:00:01;102100.56;;;12.51;100.00
75740;BME280;64357;51.344;6.550;2023-09-30T03:02:37;102086.78;;;12.58;100.00
75740;BME280;64357;51.344;6.550;2023-09-30T03:05:05;102097.88;;;12.66;100.00
75740;BME280;64357;51.344;6.550;2023-09-30T03:07:31;102082.34;;;12.64;100.00
75740;BME280;64357;51.344;6.550;2023-09-30T03:09:58;102075.03;;;12.60;100.00
75740;BME280;64357;51.344;6.550;2023-09-30T03:12:25;102071.41;;;12.58;100.00
75740;BME280;64357;51.344;6.550;2023-09-30T03:14:53;102082.25;;;12.56;100.00
75740;BME280;64357;51.344;6.550;2023-09-30T03:17:18;102087.91;;;12.53;100.00
75740;BME280;64357;51.344;6.550;2023-09-30T03:19:44;102100.22;;;12.48;100.00
75740;BME280;64357;51.344;6.550;2023-09-30T03:22:12;102088.50;;;12.50;100.00
75740;BME280;64357;51.344;6.550;2023-09-30T03:24:40;102082.03;;;12.54;100.00
75740;BME280;64357;51.344;6.550;2023-09-30T03:27:08;102079.91;;;12.50;100.00
75740;BME280;64357;51.344;6.550;2023-09-30T03:29:35;102083.22;;;12.49;100.00
75740;BME280;64357;51.344;6.550;2023-09-30T03:32:01;102078.63;;;12.46;100.00
75740;BME280;64357;51.344;6.550;2023-09-30T03:34:29;102091.50;;;12.39;100.00
75740;BME280;64357;51.344;6.550;2023-09-30T03:36:55;102075.63;;;12.35;100.00
75740;BME280;64357;51.344;6.550;2023-09-30T03:39:24;102079.03;;;12.42;100.00
75740;BME280;64357;51.344;6.550;2023-09-30T03:41:55;102079.78;;;12.41;100.00
75740;BME280;64357;51.344;6.550;2023-09-30T03:44:22;102076.66;;;12.44;100.00
75740;BME280;64357;51.344;6.550;2023-09-30T03:46:48;102071.78;;;12.31;100.00
75740;BME280;64357;51.344;6.550;2023-09-30T03:49:15;102066.97;;;12.41;100.00
75740;BME280;64357;51.344;6.550;2023-09-30T03:51:40;102067.69;;;12.40;100.00
75740;BME280;64357;51.344;6.550;2023-09-30T03:54:06;102069.59;;;12.34;100.00
75740;BME280;64357;51.344;6.550;2023-09-30T03:56:32;102070.09;;;12.39;100.00
75740;BME280;64357;51.344;6.550;2023-09-30T03:58:57;102080.41;;;12.32;100.00
75740;BME280;64357;51.344;6.550;2023-09-30T04:01:23;102084.78;;;12.33;100.00
75740;BME280;64357;51.344;6.550;2023-09-30T04:03:50;102087.53;;;12.34;100.00
75740;BME280;64357;51.344;6.550;2023-09-30T04:06:19;102074.53;;;12.33;100.00
75740;BME280;64357;51.344;6.550;2023-09-30T04:08:47;102070.50;;;12.35;100.00
75740;BME280;64357;51.344;6.550;2023-09-30T04:11:12;102058.47;;;12.26;100.00
75740;BME280;64357;51.344;6.550;2023-09-30T04:13:43;102054.09;;;12.25;100.00
75740;BME280;64357;51.344;6.550;2023-09-30T04:16:11;102061.53;;;12.31;100.00
75740;BME280;64357;51.344;6.550;2023-09-30T04:18:37;102058.81;;;12.30;100.00
75740;BME280;64357;51.344;6.550;2023-09-30T04:21:03;102067.41;;;12.30;100.00
75740;BME280;64357;51.344;6.550;2023-09-30T04:23:29;102064.47;;;12.34;100.00
75740;BME280;64357;51.344;6.550;2023-09-30T04:26:01;102078.00;;;12.33;100.00
75740;BME280;64357;51.344;6.550;2023-09-30T04:28:27;102064.00;;;12.22;100.00
75740;BME280;64357;51.344;6.550;2023-09-30T04:30:52;102081.19;;;12.23;100.00
75740;BME280;64357;51.344;6.550;2023-09-30T04:33:22;102086.41;;;12.09;100.00
75740;BME280;64357;51.344;6.550;2023-09-30T04:35:55;102092.78;;;12.13;100.00
75740;BME280;64357;51.344;6.550;2023-09-30T04:38:20;102090.91;;;12.19;100.00
75740;BME280;64357;51.344;6.550;2023-09-30T04:40:45;102091.03;;;12.27;100.00
75740;BME280;64357;51.344;6.550;2023-09-30T04:43:13;102103.50;;;12.24;100.00
75740;BME280;64357;51.344;6.550;2023-09-30T04:45:39;102110.69;;;12.20;100.00
75740;BME280;64357;51.344;6.550;2023-09-30T04:48:07;102093.19;;;12.09;100.00
75740;BME280;64357;51.344;6.550;2023-09-30T04:50:33;102104.28;;;12.16;100.00
75740;BME280;64357;51.344;6.550;2023-09-30T04:52:58;102097.22;;;12.07;100.00
75740;BME280;64357;51.344;6.550;2023-09-30T04:55:24;102112.03;;;12.09;100.00
75740;BME280;64357;51.344;6.550;2023-09-30T04:57:50;102108.88;;;12.12;100.00
75740;BME280;64357;51.344;6.550;2023-09-30T05:00:19;102107.50;;;11.99;100.00
75740;BME280;64357;51.344;6.550;2023-09-30T05:02:54;102107.53;;;11.92;100.00
75740;BME280;64357;51.344;6.550;2023-09-30T05:05:20;102103.75;;;11.82;100.00
75740;BME280;64357;51.344;6.550;2023-09-30T05:07:45;102095.16;;;11.74;100.00
75740;BME280;64357;51.344;6.550;2023-09-30T05:10:12;102113.78;;;11.80;100.00
75740;BME280;64357;51.344;6.550;2023-09-30T05:12:41;102116.56;;;11.82;100.00
75740;BME280;64357;51.344;6.550;2023-09-30T05:15:12;102118.16;;;11.88;100.00
75740;BME280;64357;51.344;6.550;2023-09-30T05:17:39;102114.53;;;11.79;100.00
75740;BME280;64357;51.344;6.550;2023-09-30T05:20:05;102119.28;;;11.76;100.00
75740;BME280;64357;51.344;6.550;2023-09-30T05:22:35;102116.19;;;11.86;100.00
75740;BME280;64357;51.344;6.550;2023-09-30T05:25:00;102105.75;;;11.84;100.00
75740;BME280;64357;51.344;6.550;2023-09-30T05:27:26;102112.47;;;11.98;100.00
75740;BME280;64357;51.344;6.550;2023-09-30T05:29:52;102119.94;;;12.04;100.00
75740;BME280;64357;51.344;6.550;2023-09-30T05:32:17;102121.56;;;12.03;100.00
75740;BME280;64357;51.344;6.550;2023-09-30T05:34:43;102112.84;;;11.94;100.00
75740;BME280;64357;51.344;6.550;2023-09-30T05:37:09;102123.44;;;11.90;100.00
75740;BME280;64357;51.344;6.550;2023-09-30T05:39:34;102129.81;;;12.00;100.00
75740;BME280;64357;51.344;6.550;2023-09-30T05:42:02;102131.13;;;11.97;100.00
75740;BME280;64357;51.344;6.550;2023-09-30T05:44:28;102129.44;;;12.05;100.00
75740;BME280;64357;51.344;6.550;2023-09-30T05:46:56;102133.16;;;11.92;100.00
75740;BME280;64357;51.344;6.550;2023-09-30T05:49:22;102129.47;;;11.97;100.00
75740;BME280;64357;51.344;6.550;2023-09-30T05:51:50;102135.84;;;12.01;100.00
75740;BME280;64357;51.344;6.550;2023-09-30T05:54:16;102145.91;;;11.99;100.00
75740;BME280;64357;51.344;6.550;2023-09-30T05:56:41;102156.69;;;12.04;100.00
75740;BME280;64357;51.344;6.550;2023-09-30T05:59:10;102144.47;;;11.94;100.00
75740;BME280;64357;51.344;6.550;2023-09-30T06:01:36;102137.03;;;11.82;100.00
75740;BME280;64357;51.344;6.550;2023-09-30T06:04:01;102139.03;;;11.91;100.00
75740;BME280;64357;51.344;6.550;2023-09-30T06:06:27;102140.66;;;11.91;100.00
75740;BME280;64357;51.344;6.550;2023-09-30T06:08:57;102144.84;;;11.97;100.00
75740;BME280;64357;51.344;6.550;2023-09-30T06:11:25;102150.34;;;11.93;100.00
75740;BME280;64357;51.344;6.550;2023-09-30T06:13:57;102160.94;;;11.89;100.00
75740;BME280;64357;51.344;6.550;2023-09-30T06:16:26;102158.97;;;11.87;100.00
75740;BME280;64357;51.344;6.550;2023-09-30T06:18:53;102155.28;;;11.92;100.00
75740;BME280;64357;51.344;6.550;2023-09-30T06:21:20;102151.44;;;11.88;100.00
75740;BME280;64357;51.344;6.550;2023-09-30T06:23:49;102140.84;;;11.92;100.00
75740;BME280;64357;51.344;6.550;2023-09-30T06:26:16;102149.97;;;11.97;100.00
75740;BME280;64357;51.344;6.550;2023-09-30T06:28:42;102146.81;;;12.00;100.00
75740;BME280;64357;51.344;6.550;2023-09-30T06:31:08;102155.94;;;12.05;100.00
75740;BME280;64357;51.344;6.550;2023-09-30T06:33:37;102149.34;;;12.07;100.00
75740;BME280;64357;51.344;6.550;2023-09-30T06:36:11;102151.25;;;12.24;100.00
75740;BME280;64357;51.344;6.550;2023-09-30T06:38:39;102143.19;;;12.28;100.00
75740;BME280;64357;51.344;6.550;2023-09-30T06:41:04;102146.22;;;12.40;100.00
75740;BME280;64357;51.344;6.550;2023-09-30T06:43:30;102150.84;;;12.35;100.00
75740;BME280;64357;51.344;6.550;2023-09-30T06:45:58;102144.47;;;12.32;100.00
75740;BME280;64357;51.344;6.550;2023-09-30T06:48:23;102157.50;;;12.19;100.00
75740;BME280;64357;51.344;6.550;2023-09-30T06:50:55;102156.59;;;12.18;100.00
75740;BME280;64357;51.344;6.550;2023-09-30T06:53:24;102154.28;;;12.06;100.00
75740;BME280;64357;51.344;6.550;2023-09-30T06:55:49;102159.78;;;12.09;100.00
75740;BME280;64357;51.344;6.550;2023-09-30T06:58:18;102154.13;;;12.04;100.00
75740;BME280;64357;51.344;6.550;2023-09-30T07:00:47;102154.88;;;11.96;100.00
75740;BME280;64357;51.344;6.550;2023-09-30T07:03:17;102168.22;;;12.00;100.00
75740;BME280;64357;51.344;6.550;2023-09-30T07:05:42;102164.22;;;11.95;100.00
75740;BME280;64357;51.344;6.550;2023-09-30T07:08:10;102169.16;;;11.94;100.00
75740;BME280;64357;51.344;6.550;2023-09-30T07:10:38;102168.75;;;12.05;100.00
75740;BME280;64357;51.344;6.550;2023-09-30T07:13:04;102176.19;;;12.18;100.00
75740;BME280;64357;51.344;6.550;2023-09-30T07:18:04;102181.41;;;12.34;100.00
75740;BME280;64357;51.344;6.550;2023-09-30T07:20:30;102177.16;;;12.41;100.00
75740;BME280;64357;51.344;6.550;2023-09-30T07:22:59;102190.44;;;12.53;100.00
75740;BME280;64357;51.344;6.550;2023-09-30T07:25:25;102205.00;;;12.68;100.00
75740;BME280;64357;51.344;6.550;2023-09-30T07:27:50;102207.13;;;12.79;100.00
75740;BME280;64357;51.344;6.550;2023-09-30T07:30:15;102208.81;;;12.95;100.00
75740;BME280;64357;51.344;6.550;2023-09-30T07:32:42;102197.84;;;12.96;100.00
75740;BME280;64357;51.344;6.550;2023-09-30T07:35:08;102212.50;;;13.13;100.00
75740;BME280;64357;51.344;6.550;2023-09-30T07:37:35;102228.09;;;13.14;100.00
75740;BME280;64357;51.344;6.550;2023-09-30T07:40:04;102228.72;;;13.04;100.00
75740;BME280;64357;51.344;6.550;2023-09-30T07:42:32;102217.25;;;13.17;100.00
75740;BME280;64357;51.344;6.550;2023-09-30T07:44:58;102229.19;;;13.39;100.00
75740;BME280;64357;51.344;6.550;2023-09-30T07:47:24;102230.25;;;13.41;100.00
75740;BME280;64357;51.344;6.550;2023-09-30T07:49:51;102220.59;;;13.39;100.00
75740;BME280;64357;51.344;6.550;2023-09-30T07:52:17;102216.47;;;13.64;100.00
75740;BME280;64357;51.344;6.550;2023-09-30T07:54:42;102232.03;;;13.65;100.00
75740;BME280;64357;51.344;6.550;2023-09-30T07:57:08;102251.19;;;13.76;100.00
75740;BME280;64357;51.344;6.550;2023-09-30T07:59:33;102244.81;;;13.88;100.00
75740;BME280;64357;51.344;6.550;2023-09-30T08:01:59;102248.66;;;13.92;100.00
75740;BME280;64357;51.344;6.550;2023-09-30T08:04:30;102244.41;;;14.08;100.00
75740;BME280;64357;51.344;6.550;2023-09-30T08:06:56;102243.56;;;14.00;100.00
75740;BME280;64357;51.344;6.550;2023-09-30T08:09:23;102259.00;;;14.16;100.00
75740;BME280;64357;51.344;6.550;2023-09-30T08:11:50;102252.84;;;14.38;100.00
75740;BME280;64357;51.344;6.550;2023-09-30T08:14:16;102258.25;;;14.49;100.00
75740;BME280;64357;51.344;6.550;2023-09-30T08:16:41;102266.69;;;14.48;100.00
75740;BME280;64357;51.344;6.550;2023-09-30T08:19:09;102266.91;;;14.74;100.00
75740;BME280;64357;51.344;6.550;2023-09-30T08:21:37;102263.72;;;14.76;100.00
75740;BME280;64357;51.344;6.550;2023-09-30T08:24:05;102262.28;;;14.62;100.00
75740;BME280;64357;51.344;6.550;2023-09-30T08:26:31;102268.31;;;14.79;100.00
75740;BME280;64357;51.344;6.550;2023-09-30T08:28:58;102257.09;;;14.78;100.00
75740;BME280;64357;51.344;6.550;2023-09-30T08:31:23;102261.78;;;14.82;100.00
75740;BME280;64357;51.344;6.550;2023-09-30T08:33:49;102248.50;;;14.62;100.00
75740;BME280;64357;51.344;6.550;2023-09-30T08:36:14;102252.09;;;14.80;100.00
75740;BME280;64357;51.344;6.550;2023-09-30T08:41:09;102254.16;;;14.66;100.00
75740;BME280;64357;51.344;6.550;2023-09-30T08:43:37;102258.38;;;14.90;100.00
75740;BME280;64357;51.344;6.550;2023-09-30T08:46:04;102239.84;;;15.10;100.00
75740;BME280;64357;51.344;6.550;2023-09-30T08:48:31;102249.19;;;15.34;100.00
75740;BME280;64357;51.344;6.550;2023-09-30T08:50:58;102248.63;;;15.45;100.00
75740;BME280;64357;51.344;6.550;2023-09-30T08:53:28;102237.16;;;15.59;100.00
75740;BME280;64357;51.344;6.550;2023-09-30T08:55:55;102230.41;;;15.77;100.00
75740;BME280;64357;51.344;6.550;2023-09-30T08:58:26;102223.63;;;15.86;100.00
75740;BME280;64357;51.344;6.550;2023-09-30T09:00:51;102211.97;;;15.90;100.00
75740;BME280;64357;51.344;6.550;2023-09-30T09:03:18;102219.84;;;16.09;100.00
75740;BME280;64357;51.344;6.550;2023-09-30T09:05:45;102218.34;;;16.19;100.00
75740;BME280;64357;51.344;6.550;2023-09-30T09:08:10;102221.19;;;16.22;100.00
75740;BME280;64357;51.344;6.550;2023-09-30T09:10:35;102230.75;;;16.49;100.00
75740;BME280;64357;51.344;6.550;2023-09-30T09:13:01;102227.56;;;16.43;100.00
75740;BME280;64357;51.344;6.550;2023-09-30T09:15:27;102207.66;;;16.68;100.00
75740;BME280;64357;51.344;6.550;2023-09-30T09:17:56;102210.38;;;16.70;100.00
75740;BME280;64357;51.344;6.550;2023-09-30T09:20:25;102223.06;;;16.94;100.00
75740;BME280;64357;51.344;6.550;2023-09-30T09:22:57;102219.63;;;17.30;100.00
75740;BME280;64357;51.344;6.550;2023-09-30T09:25:25;102229.91;;;17.39;100.00
75740;BME280;64357;51.344;6.550;2023-09-30T09:27:52;102224.84;;;17.49;100.00
75740;BME280;64357;51.344;6.550;2023-09-30T09:30:24;102228.22;;;17.67;100.00
75740;BME280;64357;51.344;6.550;2023-09-30T09:33:08;102240.44;;;17.87;100.00
75740;BME280;64357;51.344;6.550;2023-09-30T09:35:34;102230.09;;;18.05;100.00
75740;BME280;64357;51.344;6.550;2023-09-30T09:38:05;102224.78;;;17.85;100.00
75740;BME280;64357;51.344;6.550;2023-09-30T09:40:37;102224.84;;;17.76;100.00
75740;BME280;64357;51.344;6.550;2023-09-30T09:43:04;102229.97;;;18.23;100.00
75740;BME280;64357;51.344;6.550;2023-09-30T09:45:34;102242.91;;;18.42;100.00
75740;BME280;64357;51.344;6.550;2023-09-30T09:48:00;102244.00;;;18.73;100.00
75740;BME280;64357;51.344;6.550;2023-09-30T09:50:26;102241.34;;;19.31;100.00
75740;BME280;64357;51.344;6.550;2023-09-30T09:52:52;102248.16;;;19.10;100.00
75740;BME280;64357;51.344;6.550;2023-09-30T09:55:23;102253.81;;;19.55;99.60
75740;BME280;64357;51.344;6.550;2023-09-30T09:57:51;102243.47;;;20.79;92.17
75740;BME280;64357;51.344;6.550;2023-09-30T10:00:21;102256.06;;;21.07;89.20
75740;BME280;64357;51.344;6.550;2023-09-30T10:02:48;102259.69;;;20.24;92.05
75740;BME280;64357;51.344;6.550;2023-09-30T10:05:14;102268.66;;;19.27;94.30
75740;BME280;64357;51.344;6.550;2023-09-30T10:07:51;102270.91;;;19.43;93.27
75740;BME280;64357;51.344;6.550;2023-09-30T10:10:20;102271.66;;;20.02;91.13
75740;BME280;64357;51.344;6.550;2023-09-30T10:12:48;102281.31;;;20.45;86.02
75740;BME280;64357;51.344;6.550;2023-09-30T10:18:01;102263.28;;;18.95;96.60
75740;BME280;64357;51.344;6.550;2023-09-30T10:20:33;102253.84;;;18.58;99.86
75740;BME280;64357;51.344;6.550;2023-09-30T10:25:43;102245.47;;;19.29;95.02
75740;BME280;64357;51.344;6.550;2023-09-30T10:28:44;102247.44;;;21.18;85.05
75740;BME280;64357;51.344;6.550;2023-09-30T10:36:36;102255.31;;;20.75;87.07
75740;BME280;64357;51.344;6.550;2023-09-30T10:39:03;102270.22;;;19.85;90.79
75740;BME280;64357;51.344;6.550;2023-09-30T10:46:48;102278.53;;;21.60;81.42
75740;BME280;64357;51.344;6.550;2023-09-30T10:49:35;102281.13;;;21.94;79.20
75740;BME280;64357;51.344;6.550;2023-09-30T10:52:04;102269.34;;;22.44;76.48
75740;BME280;64357;51.344;6.550;2023-09-30T10:54:32;102261.72;;;21.45;80.15
75740;BME280;64357;51.344;6.550;2023-09-30T10:57:00;102259.72;;;22.67;76.17
75740;BME280;64357;51.344;6.550;2023-09-30T10:59:28;102260.13;;;23.20;74.25
75740;BME280;64357;51.344;6.550;2023-09-30T11:01:56;102251.63;;;23.47;71.84
75740;BME280;64357;51.344;6.550;2023-09-30T11:04:29;102254.97;;;23.70;68.50
75740;BME280;64357;51.344;6.550;2023-09-30T11:06:55;102248.84;;;23.69;66.05
75740;BME280;64357;51.344;6.550;2023-09-30T11:09:22;102247.78;;;23.92;67.07
75740;BME280;64357;51.344;6.550;2023-09-30T11:11:52;102233.16;;;23.44;69.72
75740;BME280;64357;51.344;6.550;2023-09-30T11:14:31;102239.84;;;23.04;68.71
75740;BME280;64357;51.344;6.550;2023-09-30T11:17:01;102231.63;;;22.62;71.81
75740;BME280;64357;51.344;6.550;2023-09-30T11:19:35;102244.19;;;22.92;69.57
75740;BME280;64357;51.344;6.550;2023-09-30T11:22:03;102230.28;;;22.56;70.86
75740;BME280;64357;51.344;6.550;2023-09-30T11:24:30;102221.81;;;23.19;69.34
75740;BME280;64357;51.344;6.550;2023-09-30T11:26:58;102218.59;;;22.62;71.22
75740;BME280;64357;51.344;6.550;2023-09-30T11:29:24;102217.03;;;21.72;73.48
75740;BME280;64357;51.344;6.550;2023-09-30T11:31:52;102221.25;;;21.04;77.78
75740;BME280;64357;51.344;6.550;2023-09-30T11:34:18;102219.47;;;20.19;81.79
75740;BME280;64357;51.344;6.550;2023-09-30T11:39:28;102207.75;;;19.12;87.72
75740;BME280;64357;51.344;6.550;2023-09-30T11:41:54;102218.41;;;18.86;89.46
75740;BME280;64357;51.344;6.550;2023-09-30T11:44:24;102206.28;;;18.66;88.64
75740;BME280;64357;51.344;6.550;2023-09-30T11:49:29;102222.22;;;18.42;90.18
75740;BME280;64357;51.344;6.550;2023-09-30T11:51:57;102219.47;;;18.40;89.70
75740;BME280;64357;51.344;6.550;2023-09-30T11:54:41;102206.66;;;18.89;86.11
75740;BME280;64357;51.344;6.550;2023-09-30T11:57:16;102215.53;;;18.73;88.25
75740;BME280;64357;51.344;6.550;2023-09-30T11:59:52;102187.34;;;18.57;89.60
75740;BME280;64357;51.344;6.550;2023-09-30T12:02:20;102203.66;;;18.85;87.15
75740;BME280;64357;51.344;6.550;2023-09-30T12:04:46;102205.56;;;19.27;84.20
75740;BME280;64357;51.344;6.550;2023-09-30T12:07:17;102193.97;;;18.92;85.16
75740;BME280;64357;51.344;6.550;2023-09-30T12:09:42;102194.75;;;19.61;82.47
75740;BME280;64357;51.344;6.550;2023-09-30T12:12:08;102168.50;;;20.62;77.55
75740;BME280;64357;51.344;6.550;2023-09-30T12:14:39;102170.09;;;20.82;77.74
75740;BME280;64357;51.344;6.550;2023-09-30T12:17:04;102158.63;;;21.45;75.26
75740;BME280;64357;51.344;6.550;2023-09-30T12:19:30;102155.44;;;21.38;71.80
75740;BME280;64357;51.344;6.550;2023-09-30T12:21:58;102166.31;;;21.22;70.75
75740;BME280;64357;51.344;6.550;2023-09-30T12:24:25;102164.47;;;21.65;67.28
75740;BME280;64357;51.344;6.550;2023-09-30T12:26:51;102172.22;;;21.53;66.72
75740;BME280;64357;51.344;6.550;2023-09-30T12:29:18;102176.41;;;22.20;66.46
75740;BME280;64357;51.344;6.550;2023-09-30T12:31:45;102170.53;;;22.11;65.24
75740;BME280;64357;51.344;6.550;2023-09-30T12:34:16;102177.56;;;21.66;68.28
75740;BME280;64357;51.344;6.550;2023-09-30T12:36:44;102189.88;;;22.14;68.43
75740;BME280;64357;51.344;6.550;2023-09-30T12:39:10;102190.44;;;22.45;68.00
75740;BME280;64357;51.344;6.550;2023-09-30T12:41:40;102185.09;;;22.08;68.19
75740;BME280;64357;51.344;6.550;2023-09-30T12:44:07;102184.53;;;21.00;71.46
75740;BME280;64357;51.344;6.550;2023-09-30T12:46:33;102179.78;;;20.20;75.22
75740;BME280;64357;51.344;6.550;2023-09-30T12:49:06;102177.38;;;19.81;78.29
75740;BME280;64357;51.344;6.550;2023-09-30T12:51:34;102173.91;;;19.70;78.10
75740;BME280;64357;51.344;6.550;2023-09-30T12:54:01;102163.22;;;19.36;79.53
75740;BME280;64357;51.344;6.550;2023-09-30T12:56:32;102171.66;;;20.05;76.82
75740;BME280;64357;51.344;6.550;2023-09-30T12:59:03;102166.81;;;20.84;72.42
75740;BME280;64357;51.344;6.550;2023-09-30T13:01:28;102164.72;;;21.12;69.86
75740;BME280;64357;51.344;6.550;2023-09-30T13:03:53;102161.97;;;21.66;66.53
75740;BME280;64357;51.344;6.550;2023-09-30T13:06:21;102153.50;;;21.92;65.61
75740;BME280;64357;51.344;6.550;2023-09-30T13:09:00;102137.25;;;21.16;67.93
75740;BME280;64357;51.344;6.550;2023-09-30T13:11:25;102142.59;;;20.41;70.46